Time;durP1;ratioP1;P1;durP2;ratioP2;P2;SDS_P1;SDS_P2;PMS_P1;PMS_P2;Temp;Humidity;BMP_temperature;BMP_pressure;BME280_temperature;BME280_humidity;BME280_pressure;Samples;Min_cycle;Max_cycle;Signal;HPM_P1;HPM_P2
2021/03/01 00:02:12;;;;;;;10.10;5.00;;;;;;;;;;4986371;28;20034;-60
2021/03/01 00:04:38;;;;;;;9.88;5.03;;;;;;;;;;4988619;28;20023;-60
2021/03/01 00:07:03;;;;;;;10.88;5.05;;;;;;;;;;4987919;28;20422;-60
2021/03/01 00:09:29;;;;;;;8.18;4.53;;;;;;;;;;4990377;28;20451;-59
2021/03/01 00:11:54;;;;;;;11.18;5.05;;;;;;;;;;4993100;28;20030;-60
2021/03/01 00:14:19;;;;;;;7.20;4.13;;;;;;;;;;4990098;28;20460;-60
2021/03/01 00:16:45;;;;;;;8.50;4.75;;;;;;;;;;4992693;28;20030;-59
2021/03/01 00:19:10;;;;;;;10.55;5.68;;;;;;;;;;4993454;28;20026;-59
2021/03/01 00:21:35;;;;;;;13.38;5.90;;;;;;;;;;4992823;28;20353;-60
2021/03/01 00:24:01;;;;;;;6.90;4.63;;;;;;;;;;4992692;28;20022;-60
2021/03/01 00:26:26;;;;;;;9.65;5.13;;;;;;;;;;4991115;28;20035;-60
2021/03/01 00:28:52;;;;;;;10.25;5.45;;;;;;;;;;4992675;28;20030;-59
2021/03/01 00:31:17;;;;;;;11.10;5.53;;;;;;;;;;4992664;28;20122;-59
2021/03/01 00:33:42;;;;;;;9.70;5.35;;;;;;;;;;4992468;28;20492;-59
2021/03/01 00:36:08;;;;;;;7.82;5.05;;;;;;;;;;4991098;28;20042;-59
2021/03/01 00:38:33;;;;;;;8.10;5.15;;;;;;;;;;4991742;28;20660;-59
2021/03/01 00:40:58;;;;;;;10.88;5.22;;;;;;;;;;4992573;28;20121;-59
2021/03/01 00:43:24;;;;;;;9.52;5.68;;;;;;;;;;4991190;28;20045;-59
2021/03/01 00:45:49;;;;;;;10.77;6.03;;;;;;;;;;4992086;28;20409;-60
2021/03/01 00:48:15;;;;;;;10.13;6.50;;;;;;;;;;4991968;28;20040;-60
2021/03/01 00:50:40;;;;;;;11.68;6.40;;;;;;;;;;4992311;28;20037;-60
2021/03/01 00:53:06;;;;;;;10.75;5.35;;;;;;;;;;4990169;28;20440;-60
2021/03/01 00:55:31;;;;;;;10.23;6.18;;;;;;;;;;4991112;28;20038;-60
2021/03/01 00:57:57;;;;;;;9.95;5.95;;;;;;;;;;4990991;28;20062;-60
2021/03/01 01:00:22;;;;;;;10.95;6.70;;;;;;;;;;4991134;28;20033;-60
2021/03/01 01:02:48;;;;;;;10.48;5.78;;;;;;;;;;4992313;28;20031;-60
2021/03/01 01:05:13;;;;;;;11.43;6.35;;;;;;;;;;4989533;28;20467;-60
2021/03/01 01:07:40;;;;;;;10.77;6.18;;;;;;;;;;4992153;28;20056;-60
2021/03/01 01:10:06;;;;;;;8.77;5.75;;;;;;;;;;4991180;28;20068;-60
2021/03/01 01:12:36;;;;;;;9.32;6.00;;;;;;;;;;4991314;28;20030;-60
2021/03/01 01:15:05;;;;;;;8.88;6.32;;;;;;;;;;4990147;28;20117;-60
2021/03/01 01:17:31;;;;;;;12.60;6.40;;;;;;;;;;4989179;28;20465;-59
2021/03/01 01:19:56;;;;;;;9.90;5.95;;;;;;;;;;4990621;28;20068;-59
2021/03/01 01:22:21;;;;;;;8.70;5.32;;;;;;;;;;4991136;28;20026;-59
2021/03/01 01:24:47;;;;;;;10.88;6.80;;;;;;;;;;4991612;28;20034;-59
2021/03/01 01:27:12;;;;;;;8.15;5.65;;;;;;;;;;4991721;28;20404;-59
2021/03/01 01:29:37;;;;;;;11.10;5.60;;;;;;;;;;4988777;28;20030;-59
2021/03/01 01:32:03;;;;;;;8.18;5.28;;;;;;;;;;4991542;28;20027;-59
2021/03/01 01:34:29;;;;;;;11.40;6.30;;;;;;;;;;4987255;28;20034;-59
2021/03/01 01:36:54;;;;;;;8.98;6.03;;;;;;;;;;4989153;28;20117;-59
2021/03/01 01:39:19;;;;;;;9.38;5.80;;;;;;;;;;4990895;28;20361;-59
2021/03/01 01:41:45;;;;;;;10.07;6.35;;;;;;;;;;4991509;28;20058;-59
2021/03/01 01:44:10;;;;;;;9.45;5.97;;;;;;;;;;4991223;28;20031;-59
2021/03/01 01:46:35;;;;;;;9.57;5.95;;;;;;;;;;4989831;28;20054;-59
2021/03/01 01:49:01;;;;;;;9.65;6.45;;;;;;;;;;4991343;28;20112;-59
2021/03/01 01:51:26;;;;;;;10.60;6.90;;;;;;;;;;4990659;28;20084;-59
2021/03/01 01:53:52;;;;;;;13.02;7.05;;;;;;;;;;4990799;28;20068;-59
2021/03/01 01:56:18;;;;;;;8.50;5.90;;;;;;;;;;4988560;28;20038;-59
2021/03/01 01:58:43;;;;;;;11.45;6.65;;;;;;;;;;4989296;28;20026;-60
2021/03/01 02:01:08;;;;;;;12.52;6.00;;;;;;;;;;4990954;28;20602;-60
2021/03/01 02:03:37;;;;;;;9.02;6.57;;;;;;;;;;4988880;28;20077;-60
2021/03/01 02:06:24;;;;;;;10.18;6.70;;;;;;;;;;4988940;28;20161;-60
2021/03/01 02:08:55;;;;;;;9.88;6.38;;;;;;;;;;4989743;28;20041;-60
2021/03/01 02:11:51;;;;;;;13.45;7.03;;;;;;;;;;4990380;28;20026;-59
2021/03/01 02:14:29;;;;;;;13.35;6.05;;;;;;;;;;4985633;28;20368;-60
2021/03/01 02:16:55;;;;;;;10.25;6.82;;;;;;;;;;4990041;28;20096;-59
2021/03/01 02:19:22;;;;;;;11.95;6.57;;;;;;;;;;4990937;28;20027;-60
2021/03/01 02:21:47;;;;;;;12.00;7.13;;;;;;;;;;4991569;28;20028;-60
2021/03/01 02:24:21;;;;;;;15.88;6.78;;;;;;;;;;4989602;28;20027;-60
2021/03/01 02:26:50;;;;;;;11.82;7.80;;;;;;;;;;4987772;28;20019;-60
2021/03/01 02:29:19;;;;;;;11.40;6.95;;;;;;;;;;4987957;28;20038;-60
2021/03/01 02:31:45;;;;;;;9.52;6.85;;;;;;;;;;4988629;28;20700;-60
2021/03/01 02:34:15;;;;;;;13.88;6.78;;;;;;;;;;4990643;28;20089;-60
2021/03/01 02:36:46;;;;;;;15.70;7.15;;;;;;;;;;4987715;28;20030;-60
2021/03/01 02:39:15;;;;;;;12.68;7.82;;;;;;;;;;4990203;28;20041;-59
2021/03/01 02:41:41;;;;;;;12.63;7.47;;;;;;;;;;4985660;28;20042;-60
2021/03/01 02:44:06;;;;;;;10.55;6.72;;;;;;;;;;4989786;28;20032;-60
2021/03/01 02:46:34;;;;;;;10.30;7.13;;;;;;;;;;4989484;28;20039;-59
2021/03/01 02:49:00;;;;;;;12.88;7.78;;;;;;;;;;4989832;28;20026;-59
2021/03/01 02:51:26;;;;;;;10.88;7.00;;;;;;;;;;4988913;28;20069;-60
2021/03/01 02:53:52;;;;;;;12.55;7.80;;;;;;;;;;4989946;28;20037;-59
2021/03/01 02:56:19;;;;;;;10.60;6.75;;;;;;;;;;4989432;28;20018;-60
2021/03/01 02:58:46;;;;;;;13.40;7.55;;;;;;;;;;4989459;28;20034;-60
2021/03/01 03:01:12;;;;;;;16.15;7.00;;;;;;;;;;4989393;28;20610;-60
2021/03/01 03:03:39;;;;;;;11.48;6.95;;;;;;;;;;4989640;28;20526;-60
2021/03/01 03:06:09;;;;;;;11.30;6.88;;;;;;;;;;4989990;28;20353;-59
2021/03/01 03:08:35;;;;;;;13.40;6.68;;;;;;;;;;4987722;28;20034;-60
2021/03/01 03:11:01;;;;;;;11.20;7.68;;;;;;;;;;4988824;28;20526;-59
2021/03/01 03:13:27;;;;;;;13.68;6.80;;;;;;;;;;4983231;28;20053;-60
2021/03/01 03:15:54;;;;;;;12.13;6.90;;;;;;;;;;4988699;28;20090;-59
2021/03/01 03:18:22;;;;;;;11.20;7.72;;;;;;;;;;4989891;28;20030;-59
2021/03/01 03:20:47;;;;;;;11.88;7.43;;;;;;;;;;4989557;28;20041;-59
2021/03/01 03:23:13;;;;;;;12.23;7.45;;;;;;;;;;4989578;28;20629;-60
2021/03/01 03:25:38;;;;;;;13.90;7.57;;;;;;;;;;4987161;28;20109;-60
2021/03/01 03:28:05;;;;;;;11.13;6.70;;;;;;;;;;4984724;28;20474;-60
2021/03/01 03:30:30;;;;;;;13.07;6.80;;;;;;;;;;4988446;28;20093;-59
2021/03/01 03:32:56;;;;;;;14.25;7.28;;;;;;;;;;4971677;28;20065;-59
2021/03/01 03:35:22;;;;;;;13.82;8.05;;;;;;;;;;4988210;28;20431;-59
2021/03/01 03:38:05;;;;;;;15.25;9.80;;;;;;;;;;4989135;28;20038;-60
2021/03/01 03:40:32;;;;;;;15.85;8.32;;;;;;;;;;4988386;28;20034;-59
2021/03/01 03:42:58;;;;;;;16.27;8.32;;;;;;;;;;4987961;28;20090;-59
2021/03/01 03:45:25;;;;;;;17.75;9.68;;;;;;;;;;4988158;28;20721;-59
2021/03/01 03:47:55;;;;;;;16.00;8.30;;;;;;;;;;4988655;28;20030;-60
2021/03/01 03:50:25;;;;;;;14.63;8.73;;;;;;;;;;4988434;28;20033;-59
2021/03/01 03:52:58;;;;;;;19.43;8.90;;;;;;;;;;4988173;28;20026;-60
2021/03/01 03:55:26;;;;;;;14.25;9.52;;;;;;;;;;4987486;28;20033;-59
2021/03/01 03:58:03;;;;;;;13.93;8.27;;;;;;;;;;4986582;28;20030;-60
2021/03/01 04:00:32;;;;;;;13.05;9.00;;;;;;;;;;4986453;28;20771;-60
2021/03/01 04:03:00;;;;;;;16.08;9.52;;;;;;;;;;4988820;28;20097;-59
2021/03/01 04:05:28;;;;;;;15.25;9.07;;;;;;;;;;4987125;28;20018;-60
2021/03/01 04:07:55;;;;;;;15.10;9.38;;;;;;;;;;4987919;28;20117;-60
2021/03/01 04:10:22;;;;;;;17.00;10.07;;;;;;;;;;4988095;28;20040;-60
2021/03/01 04:12:52;;;;;;;19.92;11.55;;;;;;;;;;4988604;28;20058;-60
2021/03/01 04:15:18;;;;;;;13.98;9.52;;;;;;;;;;4986016;28;20058;-60
2021/03/01 04:17:45;;;;;;;14.60;9.02;;;;;;;;;;4988292;28;20472;-60
2021/03/01 04:20:11;;;;;;;19.90;10.23;;;;;;;;;;4989370;28;20519;-60
2021/03/01 04:22:39;;;;;;;20.27;11.00;;;;;;;;;;4987399;28;20070;-60
2021/03/01 04:25:07;;;;;;;18.65;10.35;;;;;;;;;;4988035;28;20030;-60
2021/03/01 04:27:37;;;;;;;17.65;10.75;;;;;;;;;;4988098;28;20082;-60
2021/03/01 04:30:06;;;;;;;15.77;9.93;;;;;;;;;;4987735;28;20522;-60
2021/03/01 04:32:35;;;;;;;23.98;10.52;;;;;;;;;;4988763;28;20035;-60
2021/03/01 04:35:02;;;;;;;15.65;10.32;;;;;;;;;;4988227;28;20475;-60
2021/03/01 04:37:28;;;;;;;19.98;11.13;;;;;;;;;;4987250;28;20062;-60
2021/03/01 04:39:53;;;;;;;19.50;11.45;;;;;;;;;;4987790;28;20541;-60
2021/03/01 04:42:19;;;;;;;16.00;10.25;;;;;;;;;;4987867;28;20472;-61
2021/03/01 04:44:46;;;;;;;22.60;11.82;;;;;;;;;;4988552;28;20049;-60
2021/03/01 04:47:13;;;;;;;17.50;10.57;;;;;;;;;;4987332;28;20087;-60
2021/03/01 04:49:39;;;;;;;18.17;10.25;;;;;;;;;;4988206;28;20609;-60
2021/03/01 04:52:05;;;;;;;18.35;11.13;;;;;;;;;;4988206;28;20137;-60
2021/03/01 04:54:32;;;;;;;16.67;9.93;;;;;;;;;;4985954;28;20051;-60
2021/03/01 04:56:58;;;;;;;18.13;10.90;;;;;;;;;;4991178;28;20030;-60
2021/03/01 04:59:26;;;;;;;18.05;11.82;;;;;;;;;;4991327;28;20034;-60
2021/03/01 05:01:53;;;;;;;19.02;12.80;;;;;;;;;;4991725;28;20038;-60
2021/03/01 05:04:18;;;;;;;19.77;12.88;;;;;;;;;;4989699;28;20027;-60
2021/03/01 05:06:44;;;;;;;25.80;13.68;;;;;;;;;;4991825;28;20363;-60
2021/03/01 05:09:10;;;;;;;17.27;9.95;;;;;;;;;;4991205;28;20579;-60
2021/03/01 05:11:37;;;;;;;15.85;10.07;;;;;;;;;;4989492;28;20412;-60
2021/03/01 05:14:05;;;;;;;17.63;11.13;;;;;;;;;;4989481;28;20376;-60
2021/03/01 05:16:31;;;;;;;20.42;10.70;;;;;;;;;;4992294;28;20031;-60
2021/03/01 05:18:57;;;;;;;23.25;11.25;;;;;;;;;;4992045;28;20080;-60
2021/03/01 05:21:23;;;;;;;18.05;10.82;;;;;;;;;;4989034;28;20028;-60
2021/03/01 05:23:49;;;;;;;18.15;10.30;;;;;;;;;;4991758;28;20028;-60
2021/03/01 05:26:16;;;;;;;17.27;10.93;;;;;;;;;;4985208;28;20030;-60
2021/03/01 05:28:41;;;;;;;16.48;11.10;;;;;;;;;;4989360;28;20543;-60
2021/03/01 05:31:07;;;;;;;15.18;9.88;;;;;;;;;;4990335;28;20121;-60
2021/03/01 05:33:33;;;;;;;16.42;10.02;;;;;;;;;;4990837;28;20035;-60
2021/03/01 05:36:00;;;;;;;16.38;10.02;;;;;;;;;;4990743;28;20110;-60
2021/03/01 05:38:26;;;;;;;18.20;9.82;;;;;;;;;;4988213;28;20026;-60
2021/03/01 05:40:51;;;;;;;17.75;11.25;;;;;;;;;;4991580;28;20030;-60
2021/03/01 05:43:18;;;;;;;18.48;11.98;;;;;;;;;;4991630;28;20084;-60
2021/03/01 05:45:45;;;;;;;22.05;10.27;;;;;;;;;;4990502;28;20092;-60
2021/03/01 05:48:11;;;;;;;17.48;10.93;;;;;;;;;;4988771;28;20026;-60
2021/03/01 05:50:40;;;;;;;19.83;10.40;;;;;;;;;;4990294;28;20480;-60
2021/03/01 05:53:08;;;;;;;19.50;12.35;;;;;;;;;;4987183;28;20061;-60
2021/03/01 05:55:34;;;;;;;22.55;11.43;;;;;;;;;;4988142;28;20031;-60
2021/03/01 05:58:01;;;;;;;22.00;12.23;;;;;;;;;;4989841;28;20084;-61
2021/03/01 06:00:27;;;;;;;21.05;13.23;;;;;;;;;;4988102;28;20045;-60
2021/03/01 06:02:55;;;;;;;18.90;12.52;;;;;;;;;;4990191;28;20037;-60
2021/03/01 06:05:21;;;;;;;23.42;12.95;;;;;;;;;;4986910;28;20069;-59
2021/03/01 06:07:48;;;;;;;16.70;11.43;;;;;;;;;;4989908;28;20061;-60
2021/03/01 06:10:13;;;;;;;19.13;11.73;;;;;;;;;;4988904;28;20049;-60
2021/03/01 06:12:38;;;;;;;19.67;12.85;;;;;;;;;;4989471;28;20042;-59
2021/03/01 06:15:05;;;;;;;21.92;13.70;;;;;;;;;;4987447;28;20042;-60
2021/03/01 06:17:30;;;;;;;19.15;11.63;;;;;;;;;;4988704;28;20116;-60
2021/03/01 06:19:58;;;;;;;23.23;12.13;;;;;;;;;;4989759;28;20523;-60
2021/03/01 06:22:39;;;;;;;17.08;12.27;;;;;;;;;;4985520;28;20093;-59
2021/03/01 06:25:13;;;;;;;16.13;11.15;;;;;;;;;;4985330;28;20053;-59
2021/03/01 06:27:45;;;;;;;20.73;13.02;;;;;;;;;;4988083;28;20084;-59
2021/03/01 06:30:13;;;;;;;23.10;12.85;;;;;;;;;;4983425;28;20081;-59
2021/03/01 06:32:39;;;;;;;19.48;11.93;;;;;;;;;;4986492;28;20034;-59
2021/03/01 06:35:25;;;;;;;21.90;13.68;;;;;;;;;;4989021;28;20042;-59
2021/03/01 06:38:24;;;;;;;25.88;14.77;;;;;;;;;;4989979;28;20110;-60
2021/03/01 06:41:05;;;;;;;20.58;13.45;;;;;;;;;;4989407;28;20030;-60
2021/03/01 06:43:30;;;;;;;23.85;13.27;;;;;;;;;;4989561;28;20468;-60
2021/03/01 06:46:09;;;;;;;25.40;13.02;;;;;;;;;;4984623;28;20041;-60
2021/03/01 06:48:35;;;;;;;20.15;13.20;;;;;;;;;;4986079;28;20030;-60
2021/03/01 06:51:00;;;;;;;23.75;13.50;;;;;;;;;;4989470;28;20164;-60
2021/03/01 06:53:27;;;;;;;26.95;14.48;;;;;;;;;;4986396;28;20120;-60
2021/03/01 06:56:11;;;;;;;21.58;14.60;;;;;;;;;;4988214;28;20046;-60
2021/03/01 06:58:41;;;;;;;19.33;13.35;;;;;;;;;;4989482;28;20093;-60
2021/03/01 07:01:17;;;;;;;25.15;13.93;;;;;;;;;;4986902;28;20160;-60
2021/03/01 07:03:44;;;;;;;27.38;14.85;;;;;;;;;;4985909;28;20044;-60
2021/03/01 07:06:10;;;;;;;20.95;13.65;;;;;;;;;;4988241;28;20061;-60
2021/03/01 07:08:54;;;;;;;22.42;14.63;;;;;;;;;;4987412;28;20061;-60
2021/03/01 07:11:31;;;;;;;20.25;14.15;;;;;;;;;;4985150;28;20045;-60
2021/03/01 07:14:09;;;;;;;23.20;14.35;;;;;;;;;;4988273;28;20036;-60
2021/03/01 07:16:39;;;;;;;23.33;14.25;;;;;;;;;;4988752;28;20073;-60
2021/03/01 07:19:08;;;;;;;28.90;14.63;;;;;;;;;;4986940;28;20038;-60
2021/03/01 07:21:36;;;;;;;25.85;14.88;;;;;;;;;;4988082;28;20062;-59
2021/03/01 07:24:04;;;;;;;21.23;14.60;;;;;;;;;;4989115;28;20057;-59
2021/03/01 07:26:30;;;;;;;20.60;14.50;;;;;;;;;;4988703;28;20037;-59
2021/03/01 07:29:02;;;;;;;22.83;14.68;;;;;;;;;;4987353;28;20034;-59
2021/03/01 07:31:28;;;;;;;22.05;14.85;;;;;;;;;;4988442;28;20476;-59
2021/03/01 07:33:55;;;;;;;18.08;14.40;;;;;;;;;;4985547;28;20065;-59
2021/03/01 07:36:21;;;;;;;17.30;12.75;;;;;;;;;;4983622;28;20494;-62
2021/03/01 07:38:47;;;;;;;21.85;15.07;;;;;;;;;;4988416;28;20049;-62
2021/03/01 07:41:12;;;;;;;19.42;15.45;;;;;;;;;;4988070;28;20113;-62
2021/03/01 07:43:43;;;;;;;23.40;16.30;;;;;;;;;;4987938;28;20125;-63
2021/03/01 07:46:09;;;;;;;18.70;15.07;;;;;;;;;;4984983;28;20569;-63
2021/03/01 07:48:37;;;;;;;19.27;14.02;;;;;;;;;;4989413;28;20034;-62
2021/03/01 07:51:03;;;;;;;23.50;15.73;;;;;;;;;;4988466;28;20503;-64
2021/03/01 07:53:51;;;;;;;22.60;15.90;;;;;;;;;;4988221;28;20088;-63
2021/03/01 07:56:22;;;;;;;20.98;16.02;;;;;;;;;;4985934;28;20038;-62
2021/03/01 07:58:57;;;;;;;;;;;;;;;;;;4988707;28;20352;-62
2021/03/01 08:01:22;;;;;;;28.38;18.27;;;;;;;;;;4986980;28;19925;-62
2021/03/01 08:03:48;;;;;;;23.98;15.73;;;;;;;;;;4987540;28;20034;-63
2021/03/01 08:06:13;;;;;;;21.23;16.17;;;;;;;;;;4986213;28;20118;-62
2021/03/01 08:08:43;;;;;;;26.27;17.08;;;;;;;;;;4988654;28;20376;-64
2021/03/01 08:11:10;;;;;;;27.55;17.63;;;;;;;;;;4988361;28;20372;-64
2021/03/01 08:13:35;;;;;;;24.38;17.08;;;;;;;;;;4987171;28;20913;-63
2021/03/01 08:16:23;;;;;;;25.48;16.65;;;;;;;;;;4988073;28;20117;-62
2021/03/01 08:18:58;;;;;;;22.58;16.13;;;;;;;;;;4987484;28;20022;-62
2021/03/01 08:21:25;;;;;;;22.15;16.92;;;;;;;;;;4985173;28;20034;-62
2021/03/01 08:23:51;;;;;;;21.50;15.30;;;;;;;;;;4989002;28;20106;-62
2021/03/01 08:26:27;;;;;;;18.50;13.05;;;;;;;;;;4989155;28;20504;-64
2021/03/01 08:28:55;;;;;;;19.15;13.98;;;;;;;;;;4988839;28;20038;-62
2021/03/01 08:31:22;;;;;;;16.42;12.77;;;;;;;;;;4990903;28;20472;-62
2021/03/01 08:33:49;;;;;;;17.23;11.52;;;;;;;;;;4992926;28;20038;-62
2021/03/01 08:36:14;;;;;;;14.13;10.75;;;;;;;;;;4990532;28;20054;-64
2021/03/01 08:38:42;;;;;;;15.13;10.73;;;;;;;;;;4991989;28;20472;-63
2021/03/01 08:41:13;;;;;;;17.05;13.52;;;;;;;;;;4991467;28;20045;-64
2021/03/01 08:43:43;;;;;;;20.13;11.75;;;;;;;;;;4992314;28;20034;-63
2021/03/01 08:46:18;;;;;;;12.32;9.85;;;;;;;;;;4991893;28;20041;-64
2021/03/01 08:48:46;;;;;;;12.68;9.73;;;;;;;;;;4992182;28;20069;-63
2021/03/01 08:51:13;;;;;;;12.38;9.05;;;;;;;;;;4987662;28;20049;-63
2021/03/01 08:53:39;;;;;;;13.65;9.73;;;;;;;;;;4992387;28;20065;-64
2021/03/01 08:56:05;;;;;;;11.80;9.68;;;;;;;;;;4991037;28;20088;-64
2021/03/01 08:58:35;;;;;;;14.02;10.20;;;;;;;;;;4988255;28;20042;-63
2021/03/01 09:01:05;;;;;;;13.63;9.20;;;;;;;;;;4991364;28;20050;-63
2021/03/01 09:03:38;;;;;;;12.65;9.25;;;;;;;;;;4990996;28;20035;-63
2021/03/01 09:06:13;;;;;;;11.57;8.50;;;;;;;;;;4990910;28;20093;-64
2021/03/01 09:08:40;;;;;;;11.32;8.98;;;;;;;;;;4992074;28;20105;-62
2021/03/01 09:11:11;;;;;;;13.13;8.95;;;;;;;;;;4991976;28;20133;-64
2021/03/01 09:13:37;;;;;;;11.00;9.13;;;;;;;;;;4990123;28;20034;-63
2021/03/01 09:16:04;;;;;;;18.38;9.13;;;;;;;;;;4989466;28;20133;-62
2021/03/01 09:18:31;;;;;;;15.30;8.07;;;;;;;;;;4990937;28;20038;-63
2021/03/01 09:20:57;;;;;;;11.55;8.43;;;;;;;;;;4990888;28;20483;-64
2021/03/01 09:23:36;;;;;;;10.88;8.35;;;;;;;;;;4989585;28;20041;-64
2021/03/01 09:26:06;;;;;;;19.10;8.55;;;;;;;;;;4987778;28;20022;-64
2021/03/01 09:28:36;;;;;;;12.30;7.68;;;;;;;;;;4990889;28;20038;-64
2021/03/01 09:31:03;;;;;;;12.55;8.82;;;;;;;;;;4991204;28;20037;-64
2021/03/01 09:33:29;;;;;;;9.60;7.57;;;;;;;;;;4988674;28;20485;-64
2021/03/01 09:35:55;;;;;;;10.38;7.47;;;;;;;;;;4991364;28;20039;-64
2021/03/01 09:38:20;;;;;;;11.38;7.85;;;;;;;;;;4991614;28;20053;-64
2021/03/01 09:40:45;;;;;;;11.23;8.82;;;;;;;;;;4989750;28;20452;-64
2021/03/01 09:43:12;;;;;;;15.93;9.02;;;;;;;;;;4990470;28;20614;-64
2021/03/01 09:45:38;;;;;;;11.52;8.75;;;;;;;;;;4991745;28;20023;-63
2021/03/01 09:48:05;;;;;;;12.50;8.27;;;;;;;;;;4991908;28;20523;-63
2021/03/01 09:50:32;;;;;;;16.08;8.80;;;;;;;;;;4988625;28;20579;-63
2021/03/01 09:52:58;;;;;;;12.40;8.02;;;;;;;;;;4990415;28;20034;-63
2021/03/01 09:55:24;;;;;;;14.32;9.10;;;;;;;;;;4989320;28;20034;-63
2021/03/01 09:57:50;;;;;;;10.48;8.23;;;;;;;;;;4989718;28;20325;-63
2021/03/01 10:00:30;;;;;;;13.18;8.55;;;;;;;;;;4990160;28;20088;-63
2021/03/01 10:03:00;;;;;;;11.55;8.15;;;;;;;;;;4988574;28;20121;-65
2021/03/01 10:05:27;;;;;;;14.68;9.88;;;;;;;;;;4990011;28;20027;-63
2021/03/01 10:07:57;;;;;;;14.75;9.07;;;;;;;;;;4990578;28;20033;-64
2021/03/01 10:10:23;;;;;;;20.73;9.30;;;;;;;;;;4989941;28;20364;-64
2021/03/01 10:12:50;;;;;;;11.15;8.48;;;;;;;;;;4991031;28;20622;-63
2021/03/01 10:15:16;;;;;;;13.68;7.78;;;;;;;;;;4988147;28;20431;-65
2021/03/01 10:17:41;;;;;;;12.75;8.90;;;;;;;;;;5005450;28;20088;-63
2021/03/01 10:20:12;;;;;;;12.23;8.57;;;;;;;;;;4988705;28;20073;-64
2021/03/01 10:22:59;;;;;;;12.48;8.65;;;;;;;;;;4990362;28;20026;-64
2021/03/01 10:25:29;;;;;;;13.23;9.15;;;;;;;;;;4988841;28;20033;-64
2021/03/01 10:27:54;;;;;;;13.07;8.70;;;;;;;;;;4989990;28;20038;-64
2021/03/01 10:30:20;;;;;;;12.73;8.48;;;;;;;;;;4990310;28;20093;-64
2021/03/01 10:32:46;;;;;;;13.35;8.15;;;;;;;;;;4990455;28;20038;-64
2021/03/01 10:35:22;;;;;;;12.43;8.82;;;;;;;;;;4986567;28;20149;-64
2021/03/01 10:38:04;;;;;;;11.30;8.98;;;;;;;;;;4990627;28;21243;-64
2021/03/01 10:40:30;;;;;;;11.48;8.55;;;;;;;;;;4989416;28;20104;-63
2021/03/01 10:42:56;;;;;;;10.55;7.95;;;;;;;;;;4989926;28;20026;-63
2021/03/01 10:45:21;;;;;;;10.95;8.75;;;;;;;;;;4987035;28;20058;-63
2021/03/01 10:48:00;;;;;;;9.65;8.13;;;;;;;;;;4989121;28;20050;-63
2021/03/01 10:50:26;;;;;;;10.73;8.60;;;;;;;;;;4988153;28;20030;-63
2021/03/01 10:52:51;;;;;;;11.13;8.98;;;;;;;;;;4988648;28;20089;-63
2021/03/01 10:55:16;;;;;;;11.70;9.13;;;;;;;;;;4988104;28;20033;-64
2021/03/01 10:57:42;;;;;;;12.55;8.75;;;;;;;;;;4986399;28;20469;-64
2021/03/01 11:00:08;;;;;;;12.77;9.48;;;;;;;;;;4989337;28;20439;-63
2021/03/01 11:02:33;;;;;;;12.32;8.82;;;;;;;;;;4988443;28;20040;-63
2021/03/01 11:04:59;;;;;;;13.77;9.02;;;;;;;;;;4990067;28;20459;-63
2021/03/01 11:07:26;;;;;;;11.32;8.45;;;;;;;;;;4989524;28;20089;-64
2021/03/01 11:09:51;;;;;;;11.63;9.18;;;;;;;;;;4987277;28;20031;-63
2021/03/01 11:12:17;;;;;;;13.40;9.15;;;;;;;;;;4980832;28;20030;-63
2021/03/01 11:14:42;;;;;;;14.23;8.60;;;;;;;;;;4988419;28;20048;-64
2021/03/01 11:17:08;;;;;;;10.60;8.10;;;;;;;;;;4989288;28;20433;-63
2021/03/01 11:19:34;;;;;;;15.25;8.80;;;;;;;;;;4983502;28;20035;-64
2021/03/01 11:21:59;;;;;;;12.00;9.38;;;;;;;;;;4988710;28;20093;-63
2021/03/01 11:24:25;;;;;;;11.32;8.75;;;;;;;;;;4987428;28;20033;-63
2021/03/01 11:26:51;;;;;;;11.02;9.48;;;;;;;;;;4987872;28;20026;-63
2021/03/01 11:29:17;;;;;;;11.25;8.48;;;;;;;;;;4988553;28;20026;-64
2021/03/01 11:31:42;;;;;;;11.30;8.15;;;;;;;;;;4989591;28;20030;-64
2021/03/01 11:34:08;;;;;;;13.23;8.63;;;;;;;;;;4988430;28;20061;-64
2021/03/01 11:36:34;;;;;;;12.68;8.95;;;;;;;;;;4984364;28;20031;-63
2021/03/01 11:39:00;;;;;;;16.20;9.82;;;;;;;;;;4988797;28;20109;-65
2021/03/01 11:41:26;;;;;;;11.95;8.20;;;;;;;;;;4987851;28;20109;-63
2021/03/01 11:43:52;;;;;;;10.85;7.95;;;;;;;;;;4988712;28;20056;-63
2021/03/01 11:46:18;;;;;;;12.07;8.70;;;;;;;;;;4988311;28;20482;-63
2021/03/01 11:48:44;;;;;;;11.43;8.77;;;;;;;;;;4988502;28;20058;-63
2021/03/01 11:51:12;;;;;;;17.17;9.05;;;;;;;;;;4989350;28;20117;-64
2021/03/01 11:53:40;;;;;;;12.38;8.63;;;;;;;;;;4984602;28;20041;-65
2021/03/01 11:56:09;;;;;;;14.38;9.30;;;;;;;;;;4987251;28;20068;-63
2021/03/01 11:58:38;;;;;;;15.05;8.55;;;;;;;;;;4988661;28;20069;-62
2021/03/01 12:01:04;;;;;;;11.32;8.60;;;;;;;;;;4989351;28;20026;-62
2021/03/01 12:03:30;;;;;;;8.73;7.53;;;;;;;;;;4987425;28;20054;-63
2021/03/01 12:05:55;;;;;;;10.98;8.63;;;;;;;;;;4987324;28;20422;-62
2021/03/01 12:08:20;;;;;;;14.30;8.90;;;;;;;;;;4988106;28;20022;-62
2021/03/01 12:10:46;;;;;;;11.52;9.10;;;;;;;;;;4986271;28;20061;-63
2021/03/01 12:13:11;;;;;;;11.55;8.90;;;;;;;;;;4988215;28;20364;-63
2021/03/01 12:15:37;;;;;;;12.98;8.35;;;;;;;;;;4987751;28;20033;-63
2021/03/01 12:18:02;;;;;;;9.48;7.47;;;;;;;;;;4988485;28;20447;-63
2021/03/01 12:20:28;;;;;;;13.45;8.15;;;;;;;;;;4987728;28;20042;-62
2021/03/01 12:22:53;;;;;;;9.82;8.15;;;;;;;;;;4988362;28;20536;-63
2021/03/01 12:25:19;;;;;;;11.68;8.48;;;;;;;;;;4987373;28;20453;-62
2021/03/01 12:27:44;;;;;;;10.07;8.13;;;;;;;;;;4987617;28;20061;-63
2021/03/01 12:30:10;;;;;;;12.40;8.85;;;;;;;;;;4986072;28;20456;-62
2021/03/01 12:32:36;;;;;;;11.75;7.70;;;;;;;;;;4987109;28;20059;-63
2021/03/01 12:35:02;;;;;;;10.65;7.85;;;;;;;;;;4985998;28;20066;-63
2021/03/01 12:37:28;;;;;;;11.02;7.78;;;;;;;;;;4987275;28;20105;-63
2021/03/01 12:39:55;;;;;;;10.90;8.13;;;;;;;;;;4985689;28;20781;-63
2021/03/01 12:42:21;;;;;;;12.07;8.27;;;;;;;;;;4987422;28;20032;-63
2021/03/01 12:44:46;;;;;;;12.02;7.57;;;;;;;;;;4983918;28;20053;-62
2021/03/01 12:47:12;;;;;;;14.70;10.65;;;;;;;;;;4986660;28;20121;-59
2021/03/01 12:49:37;;;;;;;13.85;8.57;;;;;;;;;;4986403;28;20163;-59
2021/03/01 12:52:02;;;;;;;10.73;8.05;;;;;;;;;;4984942;28;20046;-62
2021/03/01 12:54:28;;;;;;;13.38;8.00;;;;;;;;;;4983169;28;20409;-62
2021/03/01 12:56:53;;;;;;;14.23;9.20;;;;;;;;;;4987221;28;20038;-63
2021/03/01 12:59:19;;;;;;;12.40;9.07;;;;;;;;;;4985895;28;20089;-63
2021/03/01 13:01:44;;;;;;;13.15;7.70;;;;;;;;;;4987065;28;20045;-63
2021/03/01 13:04:10;;;;;;;9.32;7.22;;;;;;;;;;4982497;28;20053;-63
2021/03/01 13:06:35;;;;;;;13.57;9.05;;;;;;;;;;4984740;28;20109;-62
2021/03/01 13:09:00;;;;;;;11.30;8.38;;;;;;;;;;4987588;28;20094;-63
2021/03/01 13:11:26;;;;;;;10.00;7.20;;;;;;;;;;4984400;28;20988;-63
2021/03/01 13:13:52;;;;;;;11.48;8.13;;;;;;;;;;4984747;28;20038;-63
2021/03/01 13:16:17;;;;;;;11.75;8.80;;;;;;;;;;4985985;28;20034;-59
2021/03/01 13:18:43;;;;;;;11.45;8.82;;;;;;;;;;4990627;28;20038;-63
2021/03/01 13:21:09;;;;;;;12.75;9.00;;;;;;;;;;4990611;28;20049;-59
2021/03/01 13:23:35;;;;;;;10.10;7.82;;;;;;;;;;4991289;28;20069;-58
2021/03/01 13:26:01;;;;;;;10.30;8.02;;;;;;;;;;4991813;28;20026;-63
2021/03/01 13:28:27;;;;;;;9.82;7.93;;;;;;;;;;4990117;28;20042;-63
2021/03/01 13:30:53;;;;;;;9.40;7.35;;;;;;;;;;4991240;28;20099;-63
2021/03/01 13:33:22;;;;;;;10.10;8.40;;;;;;;;;;4988982;28;20137;-59
2021/03/01 13:35:48;;;;;;;12.05;7.65;;;;;;;;;;4989923;28;20325;-59
2021/03/01 13:38:13;;;;;;;10.35;7.75;;;;;;;;;;4992551;28;20037;-64
2021/03/01 13:40:39;;;;;;;9.27;7.10;;;;;;;;;;4992254;28;20070;-59
2021/03/01 13:43:04;;;;;;;12.85;7.93;;;;;;;;;;4986501;28;20134;-64
2021/03/01 13:45:30;;;;;;;10.35;7.07;;;;;;;;;;4987339;28;20120;-59
2021/03/01 13:47:55;;;;;;;9.80;7.18;;;;;;;;;;4989682;28;20534;-59
2021/03/01 13:50:21;;;;;;;12.38;7.50;;;;;;;;;;4989510;28;20112;-58
2021/03/01 13:52:47;;;;;;;12.00;7.97;;;;;;;;;;4989864;28;20038;-58
2021/03/01 13:55:13;;;;;;;14.95;7.65;;;;;;;;;;4990356;28;20038;-59
2021/03/01 13:57:38;;;;;;;16.65;8.32;;;;;;;;;;4989253;28;20039;-59
2021/03/01 14:00:06;;;;;;;17.73;7.55;;;;;;;;;;4990616;28;20026;-59
2021/03/01 14:02:31;;;;;;;8.50;6.40;;;;;;;;;;4988798;28;20443;-58
2021/03/01 14:04:57;;;;;;;11.32;7.20;;;;;;;;;;4990264;28;20034;-59
2021/03/01 14:07:22;;;;;;;12.38;8.15;;;;;;;;;;4988892;28;20146;-59
2021/03/01 14:09:49;;;;;;;11.48;7.35;;;;;;;;;;4984555;28;20487;-59
2021/03/01 14:12:14;;;;;;;9.02;7.07;;;;;;;;;;4990358;28;20034;-58
2021/03/01 14:14:39;;;;;;;10.20;7.50;;;;;;;;;;4991520;28;20040;-59
2021/03/01 14:17:05;;;;;;;9.98;7.65;;;;;;;;;;4990640;28;20034;-63
2021/03/01 14:19:31;;;;;;;11.63;7.47;;;;;;;;;;4989554;28;20038;-63
2021/03/01 14:21:57;;;;;;;18.55;7.90;;;;;;;;;;4988439;28;20042;-63
2021/03/01 14:24:22;;;;;;;11.85;6.82;;;;;;;;;;4988157;28;20045;-63
2021/03/01 14:26:48;;;;;;;12.20;7.60;;;;;;;;;;4988547;28;20022;-63
2021/03/01 14:29:14;;;;;;;10.10;6.45;;;;;;;;;;4988910;28;20061;-63
2021/03/01 14:31:39;;;;;;;19.08;7.40;;;;;;;;;;4988975;28;20030;-63